sensor_id;sensor_type;location;lat;lon;timestamp;temperature;humidity
46898;DHT22;32646;50.958;6.258;2022-08-21T00:01:39;14.10;99.90
46898;DHT22;32646;50.958;6.258;2022-08-21T00:04:07;14.10;99.90
46898;DHT22;32646;50.958;6.258;2022-08-21T00:06:36;14.00;99.90
46898;DHT22;32646;50.958;6.258;2022-08-21T00:09:04;14.00;99.90
46898;DHT22;32646;50.958;6.258;2022-08-21T00:11:34;13.90;99.90
46898;DHT22;32646;50.958;6.258;2022-08-21T00:14:02;13.80;99.90
46898;DHT22;32646;50.958;6.258;2022-08-21T00:16:29;13.70;99.90
46898;DHT22;32646;50.958;6.258;2022-08-21T00:18:56;13.60;99.90
46898;DHT22;32646;50.958;6.258;2022-08-21T00:21:23;13.60;99.90
46898;DHT22;32646;50.958;6.258;2022-08-21T00:23:50;13.50;99.90
46898;DHT22;32646;50.958;6.258;2022-08-21T00:26:17;13.50;99.90
46898;DHT22;32646;50.958;6.258;2022-08-21T00:28:44;13.50;99.90
46898;DHT22;32646;50.958;6.258;2022-08-21T00:31:10;13.60;99.90
46898;DHT22;32646;50.958;6.258;2022-08-21T00:33:37;13.60;99.90
46898;DHT22;32646;50.958;6.258;2022-08-21T00:36:04;13.60;99.90
46898;DHT22;32646;50.958;6.258;2022-08-21T00:38:31;13.60;99.90
46898;DHT22;32646;50.958;6.258;2022-08-21T00:41:00;13.50;99.90
46898;DHT22;32646;50.958;6.258;2022-08-21T00:43:47;13.50;99.90
46898;DHT22;32646;50.958;6.258;2022-08-21T00:46:14;13.50;99.90
46898;DHT22;32646;50.958;6.258;2022-08-21T00:48:40;13.50;99.90
46898;DHT22;32646;50.958;6.258;2022-08-21T00:51:17;13.60;99.90
46898;DHT22;32646;50.958;6.258;2022-08-21T00:53:45;13.60;99.90
46898;DHT22;32646;50.958;6.258;2022-08-21T00:56:19;13.70;99.90
46898;DHT22;32646;50.958;6.258;2022-08-21T00:58:47;13.60;99.90
46898;DHT22;32646;50.958;6.258;2022-08-21T01:01:20;13.60;99.90
46898;DHT22;32646;50.958;6.258;2022-08-21T01:03:47;13.70;99.90
46898;DHT22;32646;50.958;6.258;2022-08-21T01:06:16;13.70;99.90
46898;DHT22;32646;50.958;6.258;2022-08-21T01:08:42;13.70;99.90
46898;DHT22;32646;50.958;6.258;2022-08-21T01:11:14;13.70;99.90
46898;DHT22;32646;50.958;6.258;2022-08-21T01:13:41;13.70;99.90
46898;DHT22;32646;50.958;6.258;2022-08-21T01:16:09;13.70;99.90
46898;DHT22;32646;50.958;6.258;2022-08-21T01:18:36;13.70;99.90
46898;DHT22;32646;50.958;6.258;2022-08-21T01:21:06;13.60;99.90
46898;DHT22;32646;50.958;6.258;2022-08-21T01:23:35;13.60;99.90
46898;DHT22;32646;50.958;6.258;2022-08-21T01:26:03;13.60;99.90
46898;DHT22;32646;50.958;6.258;2022-08-21T01:28:33;13.60;99.90
46898;DHT22;32646;50.958;6.258;2022-08-21T01:31:02;13.50;99.90
46898;DHT22;32646;50.958;6.258;2022-08-21T01:33:29;13.40;99.90
46898;DHT22;32646;50.958;6.258;2022-08-21T01:35:55;13.50;99.90
46898;DHT22;32646;50.958;6.258;2022-08-21T01:38:22;13.40;99.90
46898;DHT22;32646;50.958;6.258;2022-08-21T01:40:49;13.40;99.90
46898;DHT22;32646;50.958;6.258;2022-08-21T01:43:15;13.40;99.90
46898;DHT22;32646;50.958;6.258;2022-08-21T01:45:50;13.40;99.90
46898;DHT22;32646;50.958;6.258;2022-08-21T01:48:16;13.40;99.90
46898;DHT22;32646;50.958;6.258;2022-08-21T01:50:43;13.30;99.90
46898;DHT22;32646;50.958;6.258;2022-08-21T01:53:10;13.30;99.90
46898;DHT22;32646;50.958;6.258;2022-08-21T01:55:36;13.30;99.90
46898;DHT22;32646;50.958;6.258;2022-08-21T01:58:03;13.20;99.90
46898;DHT22;32646;50.958;6.258;2022-08-21T02:00:30;13.20;99.90
46898;DHT22;32646;50.958;6.258;2022-08-21T02:02:56;13.10;99.90
46898;DHT22;32646;50.958;6.258;2022-08-21T02:05:23;13.10;99.90
46898;DHT22;32646;50.958;6.258;2022-08-21T02:07:51;13.10;99.90
46898;DHT22;32646;50.958;6.258;2022-08-21T02:10:23;13.00;99.90
46898;DHT22;32646;50.958;6.258;2022-08-21T02:12:50;12.90;99.90
46898;DHT22;32646;50.958;6.258;2022-08-21T02:15:17;12.90;99.90
46898;DHT22;32646;50.958;6.258;2022-08-21T02:17:56;13.00;99.90
46898;DHT22;32646;50.958;6.258;2022-08-21T02:20:30;12.90;99.90
46898;DHT22;32646;50.958;6.258;2022-08-21T02:22:57;12.90;99.90
46898;DHT22;32646;50.958;6.258;2022-08-21T02:25:27;12.90;99.90
46898;DHT22;32646;50.958;6.258;2022-08-21T02:27:54;12.90;99.90
46898;DHT22;32646;50.958;6.258;2022-08-21T02:30:28;12.90;99.90
46898;DHT22;32646;50.958;6.258;2022-08-21T02:32:55;12.90;99.90
46898;DHT22;32646;50.958;6.258;2022-08-21T02:35:23;12.90;99.90
46898;DHT22;32646;50.958;6.258;2022-08-21T02:37:53;12.90;99.90
46898;DHT22;32646;50.958;6.258;2022-08-21T02:40:23;12.80;99.90
46898;DHT22;32646;50.958;6.258;2022-08-21T02:42:50;12.70;99.90
46898;DHT22;32646;50.958;6.258;2022-08-21T02:45:17;12.60;99.90
46898;DHT22;32646;50.958;6.258;2022-08-21T02:47:58;12.50;99.90
46898;DHT22;32646;50.958;6.258;2022-08-21T02:50:40;12.40;99.90
46898;DHT22;32646;50.958;6.258;2022-08-21T02:53:09;12.40;99.90
46898;DHT22;32646;50.958;6.258;2022-08-21T02:55:37;12.40;99.90
46898;DHT22;32646;50.958;6.258;2022-08-21T02:58:06;12.40;99.90
46898;DHT22;32646;50.958;6.258;2022-08-21T03:00:34;12.40;99.90
46898;DHT22;32646;50.958;6.258;2022-08-21T03:03:01;12.40;99.90
46898;DHT22;32646;50.958;6.258;2022-08-21T03:05:29;12.50;99.90
46898;DHT22;32646;50.958;6.258;2022-08-21T03:07:57;12.50;99.90
46898;DHT22;32646;50.958;6.258;2022-08-21T03:10:24;12.60;99.90
46898;DHT22;32646;50.958;6.258;2022-08-21T03:12:51;12.60;99.90
46898;DHT22;32646;50.958;6.258;2022-08-21T03:15:20;12.60;99.90
46898;DHT22;32646;50.958;6.258;2022-08-21T03:17:47;12.60;99.90
46898;DHT22;32646;50.958;6.258;2022-08-21T03:20:17;12.60;99.90
46898;DHT22;32646;50.958;6.258;2022-08-21T03:22:44;12.50;99.90
46898;DHT22;32646;50.958;6.258;2022-08-21T03:25:19;12.60;99.90
46898;DHT22;32646;50.958;6.258;2022-08-21T03:27:52;12.60;99.90
46898;DHT22;32646;50.958;6.258;2022-08-21T03:30:24;12.60;99.90
46898;DHT22;32646;50.958;6.258;2022-08-21T03:32:51;12.60;99.90
46898;DHT22;32646;50.958;6.258;2022-08-21T03:35:18;12.60;99.90
46898;DHT22;32646;50.958;6.258;2022-08-21T03:37:45;12.50;99.90
46898;DHT22;32646;50.958;6.258;2022-08-21T03:40:14;12.50;99.90
46898;DHT22;32646;50.958;6.258;2022-08-21T03:42:41;12.50;99.90
46898;DHT22;32646;50.958;6.258;2022-08-21T03:45:08;12.50;99.90
46898;DHT22;32646;50.958;6.258;2022-08-21T03:47:36;12.50;99.90
46898;DHT22;32646;50.958;6.258;2022-08-21T03:50:04;12.50;99.90
46898;DHT22;32646;50.958;6.258;2022-08-21T03:52:31;12.40;99.90
46898;DHT22;32646;50.958;6.258;2022-08-21T03:54:58;12.30;99.90
46898;DHT22;32646;50.958;6.258;2022-08-21T03:57:26;12.30;99.90
46898;DHT22;32646;50.958;6.258;2022-08-21T03:59:53;12.20;99.90
46898;DHT22;32646;50.958;6.258;2022-08-21T04:02:21;12.10;99.90
46898;DHT22;32646;50.958;6.258;2022-08-21T04:04:48;12.10;99.90
46898;DHT22;32646;50.958;6.258;2022-08-21T04:07:16;12.00;99.90
46898;DHT22;32646;50.958;6.258;2022-08-21T04:09:43;12.00;99.90
46898;DHT22;32646;50.958;6.258;2022-08-21T04:12:09;11.90;99.90
46898;DHT22;32646;50.958;6.258;2022-08-21T04:14:36;11.90;99.90
46898;DHT22;32646;50.958;6.258;2022-08-21T04:17:03;11.90;99.90
46898;DHT22;32646;50.958;6.258;2022-08-21T04:19:29;11.90;99.90
46898;DHT22;32646;50.958;6.258;2022-08-21T04:21:56;11.90;99.90
46898;DHT22;32646;50.958;6.258;2022-08-21T04:24:22;11.80;99.90
46898;DHT22;32646;50.958;6.258;2022-08-21T04:26:49;11.80;99.90
46898;DHT22;32646;50.958;6.258;2022-08-21T04:29:16;11.80;99.90
46898;DHT22;32646;50.958;6.258;2022-08-21T04:31:42;11.80;99.90
46898;DHT22;32646;50.958;6.258;2022-08-21T04:34:09;11.80;99.90
46898;DHT22;32646;50.958;6.258;2022-08-21T04:36:35;11.80;99.90
46898;DHT22;32646;50.958;6.258;2022-08-21T04:39:03;11.70;99.90
46898;DHT22;32646;50.958;6.258;2022-08-21T04:41:30;11.80;99.90
46898;DHT22;32646;50.958;6.258;2022-08-21T04:43:57;11.70;99.90
46898;DHT22;32646;50.958;6.258;2022-08-21T04:46:23;11.80;99.90
46898;DHT22;32646;50.958;6.258;2022-08-21T04:48:50;11.80;99.90
46898;DHT22;32646;50.958;6.258;2022-08-21T04:51:20;11.80;99.90
46898;DHT22;32646;50.958;6.258;2022-08-21T04:53:56;11.80;99.90
46898;DHT22;32646;50.958;6.258;2022-08-21T04:59:00;11.90;99.90
46898;DHT22;32646;50.958;6.258;2022-08-21T05:01:29;12.00;99.90
46898;DHT22;32646;50.958;6.258;2022-08-21T05:03:58;12.20;99.90
46898;DHT22;32646;50.958;6.258;2022-08-21T05:06:26;12.30;99.90
46898;DHT22;32646;50.958;6.258;2022-08-21T05:08:55;12.60;99.90
46898;DHT22;32646;50.958;6.258;2022-08-21T05:11:29;12.80;99.90
46898;DHT22;32646;50.958;6.258;2022-08-21T05:13:55;13.00;99.90
46898;DHT22;32646;50.958;6.258;2022-08-21T05:16:23;13.10;99.90
46898;DHT22;32646;50.958;6.258;2022-08-21T05:19:06;13.20;99.90
46898;DHT22;32646;50.958;6.258;2022-08-21T05:21:38;13.30;99.90
46898;DHT22;32646;50.958;6.258;2022-08-21T05:24:05;13.30;99.90
46898;DHT22;32646;50.958;6.258;2022-08-21T05:26:32;13.40;99.90
46898;DHT22;32646;50.958;6.258;2022-08-21T05:29:11;13.40;99.90
46898;DHT22;32646;50.958;6.258;2022-08-21T05:31:38;13.50;99.90
46898;DHT22;32646;50.958;6.258;2022-08-21T05:34:05;13.60;99.90
46898;DHT22;32646;50.958;6.258;2022-08-21T05:36:32;13.60;99.90
46898;DHT22;32646;50.958;6.258;2022-08-21T05:38:59;13.60;99.90
46898;DHT22;32646;50.958;6.258;2022-08-21T05:41:26;13.60;99.90
46898;DHT22;32646;50.958;6.258;2022-08-21T05:43:52;13.80;99.90
46898;DHT22;32646;50.958;6.258;2022-08-21T05:46:19;13.80;99.90
46898;DHT22;32646;50.958;6.258;2022-08-21T05:48:46;13.90;99.90
46898;DHT22;32646;50.958;6.258;2022-08-21T05:51:17;14.00;99.90
46898;DHT22;32646;50.958;6.258;2022-08-21T05:53:43;14.10;99.90
46898;DHT22;32646;50.958;6.258;2022-08-21T05:56:12;14.20;99.90
46898;DHT22;32646;50.958;6.258;2022-08-21T05:58:39;14.30;99.90
46898;DHT22;32646;50.958;6.258;2022-08-21T06:01:05;14.40;99.90
46898;DHT22;32646;50.958;6.258;2022-08-21T06:03:35;14.50;99.90
46898;DHT22;32646;50.958;6.258;2022-08-21T06:06:02;14.60;99.90
46898;DHT22;32646;50.958;6.258;2022-08-21T06:08:29;14.70;99.90
46898;DHT22;32646;50.958;6.258;2022-08-21T06:11:00;14.80;99.90
46898;DHT22;32646;50.958;6.258;2022-08-21T06:13:27;15.00;99.90
46898;DHT22;32646;50.958;6.258;2022-08-21T06:16:06;15.10;99.90
46898;DHT22;32646;50.958;6.258;2022-08-21T06:18:34;15.10;99.90
46898;DHT22;32646;50.958;6.258;2022-08-21T06:21:01;15.20;99.90
46898;DHT22;32646;50.958;6.258;2022-08-21T06:23:28;15.30;99.90
46898;DHT22;32646;50.958;6.258;2022-08-21T06:26:00;15.40;99.90
46898;DHT22;32646;50.958;6.258;2022-08-21T06:28:27;15.60;99.90
46898;DHT22;32646;50.958;6.258;2022-08-21T06:30:54;15.70;99.90
46898;DHT22;32646;50.958;6.258;2022-08-21T06:33:21;15.80;99.90
46898;DHT22;32646;50.958;6.258;2022-08-21T06:35:50;15.90;99.90
46898;DHT22;32646;50.958;6.258;2022-08-21T06:38:17;16.00;99.90
46898;DHT22;32646;50.958;6.258;2022-08-21T06:40:44;16.10;99.90
46898;DHT22;32646;50.958;6.258;2022-08-21T06:43:16;16.20;99.90
46898;DHT22;32646;50.958;6.258;2022-08-21T06:45:44;16.30;99.90
46898;DHT22;32646;50.958;6.258;2022-08-21T06:48:11;16.40;99.90
46898;DHT22;32646;50.958;6.258;2022-08-21T06:50:44;16.50;99.90
46898;DHT22;32646;50.958;6.258;2022-08-21T06:53:13;16.70;99.90
46898;DHT22;32646;50.958;6.258;2022-08-21T06:55:41;16.80;99.90
46898;DHT22;32646;50.958;6.258;2022-08-21T06:58:08;17.00;99.90
46898;DHT22;32646;50.958;6.258;2022-08-21T07:00:39;17.10;99.90
46898;DHT22;32646;50.958;6.258;2022-08-21T07:03:06;17.30;99.90
46898;DHT22;32646;50.958;6.258;2022-08-21T07:05:33;17.40;99.90
46898;DHT22;32646;50.958;6.258;2022-08-21T07:08:01;17.60;99.90
46898;DHT22;32646;50.958;6.258;2022-08-21T07:10:28;17.70;99.90
46898;DHT22;32646;50.958;6.258;2022-08-21T07:12:55;17.80;99.90
46898;DHT22;32646;50.958;6.258;2022-08-21T07:15:29;17.90;99.90
46898;DHT22;32646;50.958;6.258;2022-08-21T07:17:58;17.90;99.90
46898;DHT22;32646;50.958;6.258;2022-08-21T07:20:26;18.00;99.90
46898;DHT22;32646;50.958;6.258;2022-08-21T07:22:53;18.10;99.90
46898;DHT22;32646;50.958;6.258;2022-08-21T07:25:20;18.30;99.90
46898;DHT22;32646;50.958;6.258;2022-08-21T07:27:46;18.40;99.90
46898;DHT22;32646;50.958;6.258;2022-08-21T07:30:13;18.50;99.90
46898;DHT22;32646;50.958;6.258;2022-08-21T07:32:39;18.60;99.90
46898;DHT22;32646;50.958;6.258;2022-08-21T07:35:06;18.60;99.90
46898;DHT22;32646;50.958;6.258;2022-08-21T07:37:33;18.60;99.90
46898;DHT22;32646;50.958;6.258;2022-08-21T07:40:00;18.70;99.90
46898;DHT22;32646;50.958;6.258;2022-08-21T07:42:26;18.90;99.90
46898;DHT22;32646;50.958;6.258;2022-08-21T07:44:55;19.00;99.90
46898;DHT22;32646;50.958;6.258;2022-08-21T07:47:22;19.10;99.90
46898;DHT22;32646;50.958;6.258;2022-08-21T07:50:09;19.20;99.90
46898;DHT22;32646;50.958;6.258;2022-08-21T07:52:36;19.20;99.90
46898;DHT22;32646;50.958;6.258;2022-08-21T07:55:03;19.40;99.90
46898;DHT22;32646;50.958;6.258;2022-08-21T07:57:32;19.40;99.10
46898;DHT22;32646;50.958;6.258;2022-08-21T07:59:59;19.60;99.90
46898;DHT22;32646;50.958;6.258;2022-08-21T08:02:29;19.80;99.90
46898;DHT22;32646;50.958;6.258;2022-08-21T08:05:02;20.00;99.40
46898;DHT22;32646;50.958;6.258;2022-08-21T08:07:30;20.50;99.90
46898;DHT22;32646;50.958;6.258;2022-08-21T08:09:57;20.80;96.20
46898;DHT22;32646;50.958;6.258;2022-08-21T08:12:24;21.10;95.10
46898;DHT22;32646;50.958;6.258;2022-08-21T08:14:51;21.50;94.40
46898;DHT22;32646;50.958;6.258;2022-08-21T08:17:18;22.10;93.50
46898;DHT22;32646;50.958;6.258;2022-08-21T08:19:44;22.60;91.80
46898;DHT22;32646;50.958;6.258;2022-08-21T08:22:19;22.90;91.40
46898;DHT22;32646;50.958;6.258;2022-08-21T08:24:47;23.70;91.10
46898;DHT22;32646;50.958;6.258;2022-08-21T08:27:15;23.60;90.60
46898;DHT22;32646;50.958;6.258;2022-08-21T08:29:42;23.90;90.00
46898;DHT22;32646;50.958;6.258;2022-08-21T08:32:09;24.80;90.30
46898;DHT22;32646;50.958;6.258;2022-08-21T08:34:37;24.70;88.20
46898;DHT22;32646;50.958;6.258;2022-08-21T08:37:07;25.20;85.30
46898;DHT22;32646;50.958;6.258;2022-08-21T08:39:35;25.40;85.70
46898;DHT22;32646;50.958;6.258;2022-08-21T08:42:30;25.30;85.20
46898;DHT22;32646;50.958;6.258;2022-08-21T08:47:44;25.40;87.10
46898;DHT22;32646;50.958;6.258;2022-08-21T08:50:33;24.90;85.70
46898;DHT22;32646;50.958;6.258;2022-08-21T08:53:07;24.70;88.20
46898;DHT22;32646;50.958;6.258;2022-08-21T08:55:43;24.50;87.10
46898;DHT22;32646;50.958;6.258;2022-08-21T08:58:23;24.30;89.10
46898;DHT22;32646;50.958;6.258;2022-08-21T09:00:52;24.50;88.30
46898;DHT22;32646;50.958;6.258;2022-08-21T09:03:21;25.00;88.80
46898;DHT22;32646;50.958;6.258;2022-08-21T09:11:10;27.30;81.80
46898;DHT22;32646;50.958;6.258;2022-08-21T09:19:39;25.90;83.40
46898;DHT22;32646;50.958;6.258;2022-08-21T09:24:54;24.30;86.50
46898;DHT22;32646;50.958;6.258;2022-08-21T09:27:23;24.60;89.30
46898;DHT22;32646;50.958;6.258;2022-08-21T09:29:53;24.90;87.10
46898;DHT22;32646;50.958;6.258;2022-08-21T09:32:30;25.20;84.00
46898;DHT22;32646;50.958;6.258;2022-08-21T09:35:19;25.70;85.40
46898;DHT22;32646;50.958;6.258;2022-08-21T09:40:27;25.80;80.80
46898;DHT22;32646;50.958;6.258;2022-08-21T09:42:57;25.20;83.10
46898;DHT22;32646;50.958;6.258;2022-08-21T09:45:26;25.70;84.20
46898;DHT22;32646;50.958;6.258;2022-08-21T09:48:19;26.40;84.40
46898;DHT22;32646;50.958;6.258;2022-08-21T09:50:48;27.00;81.90
46898;DHT22;32646;50.958;6.258;2022-08-21T09:53:34;26.50;79.40
46898;DHT22;32646;50.958;6.258;2022-08-21T09:56:20;25.80;81.70
46898;DHT22;32646;50.958;6.258;2022-08-21T09:58:51;25.80;82.60
46898;DHT22;32646;50.958;6.258;2022-08-21T10:01:21;25.80;84.30
46898;DHT22;32646;50.958;6.258;2022-08-21T10:04:03;25.40;82.70
46898;DHT22;32646;50.958;6.258;2022-08-21T10:06:30;25.30;81.70
46898;DHT22;32646;50.958;6.258;2022-08-21T10:09:15;25.70;82.00
46898;DHT22;32646;50.958;6.258;2022-08-21T10:12:05;24.90;84.90
46898;DHT22;32646;50.958;6.258;2022-08-21T10:15:00;24.70;86.00
46898;DHT22;32646;50.958;6.258;2022-08-21T10:17:51;25.00;85.30
46898;DHT22;32646;50.958;6.258;2022-08-21T10:20:30;25.10;84.40
46898;DHT22;32646;50.958;6.258;2022-08-21T10:29:03;25.60;83.30
46898;DHT22;32646;50.958;6.258;2022-08-21T10:37:22;25.90;84.10
46898;DHT22;32646;50.958;6.258;2022-08-21T10:45:15;26.00;82.00
46898;DHT22;32646;50.958;6.258;2022-08-21T10:47:48;26.30;84.60
46898;DHT22;32646;50.958;6.258;2022-08-21T10:56:26;26.60;82.70
46898;DHT22;32646;50.958;6.258;2022-08-21T10:59:29;26.00;82.20
46898;DHT22;32646;50.958;6.258;2022-08-21T11:04:52;26.10;80.40
46898;DHT22;32646;50.958;6.258;2022-08-21T11:07:34;26.00;80.50
46898;DHT22;32646;50.958;6.258;2022-08-21T11:10:21;25.60;80.40
46898;DHT22;32646;50.958;6.258;2022-08-21T11:12:58;25.40;82.00
46898;DHT22;32646;50.958;6.258;2022-08-21T11:20:42;26.00;82.50
46898;DHT22;32646;50.958;6.258;2022-08-21T11:23:14;26.40;81.80
46898;DHT22;32646;50.958;6.258;2022-08-21T11:25:47;26.60;80.80
46898;DHT22;32646;50.958;6.258;2022-08-21T11:28:26;26.80;80.50
46898;DHT22;32646;50.958;6.258;2022-08-21T11:34:06;26.60;78.90
46898;DHT22;32646;50.958;6.258;2022-08-21T11:42:24;27.10;78.70
46898;DHT22;32646;50.958;6.258;2022-08-21T11:45:12;27.20;77.90
46898;DHT22;32646;50.958;6.258;2022-08-21T11:47:58;27.00;78.50
46898;DHT22;32646;50.958;6.258;2022-08-21T11:50:30;27.10;76.90
46898;DHT22;32646;50.958;6.258;2022-08-21T11:58:25;27.70;77.60
46898;DHT22;32646;50.958;6.258;2022-08-21T12:00:56;27.70;77.40
46898;DHT22;32646;50.958;6.258;2022-08-21T12:03:42;27.60;77.20
46898;DHT22;32646;50.958;6.258;2022-08-21T12:06:13;27.70;78.20
46898;DHT22;32646;50.958;6.258;2022-08-21T12:08:58;28.10;76.50
46898;DHT22;32646;50.958;6.258;2022-08-21T12:11:25;28.50;74.50
46898;DHT22;32646;50.958;6.258;2022-08-21T12:16:34;28.30;74.60
46898;DHT22;32646;50.958;6.258;2022-08-21T12:19:06;28.30;74.70
46898;DHT22;32646;50.958;6.258;2022-08-21T12:27:00;28.80;72.70
46898;DHT22;32646;50.958;6.258;2022-08-21T12:29:32;29.50;75.40
46898;DHT22;32646;50.958;6.258;2022-08-21T12:32:24;28.90;71.90
46898;DHT22;32646;50.958;6.258;2022-08-21T12:34:55;28.80;72.00
46898;DHT22;32646;50.958;6.258;2022-08-21T12:37:40;28.50;71.80
46898;DHT22;32646;50.958;6.258;2022-08-21T12:40:27;29.40;72.00
46898;DHT22;32646;50.958;6.258;2022-08-21T12:42:59;30.30;74.30
46898;DHT22;32646;50.958;6.258;2022-08-21T12:45:41;30.60;71.80
46898;DHT22;32646;50.958;6.258;2022-08-21T12:50:52;30.80;71.20
46898;DHT22;32646;50.958;6.258;2022-08-21T12:53:29;30.70;70.20
46898;DHT22;32646;50.958;6.258;2022-08-21T12:55:57;29.40;70.70
46898;DHT22;32646;50.958;6.258;2022-08-21T12:58:24;29.60;70.70
46898;DHT22;32646;50.958;6.258;2022-08-21T13:00:54;29.40;71.20
46898;DHT22;32646;50.958;6.258;2022-08-21T13:03:23;29.10;70.10
46898;DHT22;32646;50.958;6.258;2022-08-21T13:05:50;28.70;71.20
46898;DHT22;32646;50.958;6.258;2022-08-21T13:08:20;28.60;71.20
46898;DHT22;32646;50.958;6.258;2022-08-21T13:10:49;28.50;72.30
46898;DHT22;32646;50.958;6.258;2022-08-21T13:13:26;29.00;70.60
46898;DHT22;32646;50.958;6.258;2022-08-21T13:16:03;28.90;71.40
46898;DHT22;32646;50.958;6.258;2022-08-21T13:18:34;29.10;72.80
46898;DHT22;32646;50.958;6.258;2022-08-21T13:21:19;29.90;72.80
46898;DHT22;32646;50.958;6.258;2022-08-21T13:23:45;30.00;71.30
46898;DHT22;32646;50.958;6.258;2022-08-21T13:26:19;29.20;71.90
46898;DHT22;32646;50.958;6.258;2022-08-21T13:28:46;29.10;70.90
46898;DHT22;32646;50.958;6.258;2022-08-21T13:31:22;28.50;70.40
46898;DHT22;32646;50.958;6.258;2022-08-21T13:33:51;27.80;72.00
46898;DHT22;32646;50.958;6.258;2022-08-21T13:36:23;27.40;72.80
46898;DHT22;32646;50.958;6.258;2022-08-21T13:38:51;27.30;73.40
46898;DHT22;32646;50.958;6.258;2022-08-21T13:41:25;27.50;74.70
46898;DHT22;32646;50.958;6.258;2022-08-21T13:43:59;27.50;73.10
46898;DHT22;32646;50.958;6.258;2022-08-21T13:46:29;28.00;71.10
46898;DHT22;32646;50.958;6.258;2022-08-21T13:48:59;28.30;73.60
46898;DHT22;32646;50.958;6.258;2022-08-21T13:51:26;28.20;71.60
46898;DHT22;32646;50.958;6.258;2022-08-21T13:53:53;27.80;70.60
46898;DHT22;32646;50.958;6.258;2022-08-21T13:56:33;27.40;71.90
46898;DHT22;32646;50.958;6.258;2022-08-21T13:59:07;27.80;70.60
46898;DHT22;32646;50.958;6.258;2022-08-21T14:01:39;27.50;71.40
46898;DHT22;32646;50.958;6.258;2022-08-21T14:04:24;27.50;72.00
46898;DHT22;32646;50.958;6.258;2022-08-21T14:06:52;26.70;72.20
46898;DHT22;32646;50.958;6.258;2022-08-21T14:09:32;26.80;74.50
46898;DHT22;32646;50.958;6.258;2022-08-21T14:12:00;26.00;76.00
46898;DHT22;32646;50.958;6.258;2022-08-21T14:14:33;25.70;75.50
46898;DHT22;32646;50.958;6.258;2022-08-21T14:17:05;25.80;73.60
46898;DHT22;32646;50.958;6.258;2022-08-21T14:19:51;25.60;74.20
46898;DHT22;32646;50.958;6.258;2022-08-21T14:25:15;25.90;73.20
46898;DHT22;32646;50.958;6.258;2022-08-21T14:27:56;26.40;73.00
46898;DHT22;32646;50.958;6.258;2022-08-21T14:30:31;26.60;74.00
46898;DHT22;32646;50.958;6.258;2022-08-21T14:33:00;26.70;75.30
46898;DHT22;32646;50.958;6.258;2022-08-21T14:35:27;26.70;72.50
46898;DHT22;32646;50.958;6.258;2022-08-21T14:37:55;27.00;70.80
46898;DHT22;32646;50.958;6.258;2022-08-21T14:40:23;26.90;72.30
46898;DHT22;32646;50.958;6.258;2022-08-21T14:42:51;26.40;72.50
46898;DHT22;32646;50.958;6.258;2022-08-21T14:45:20;26.50;72.90
46898;DHT22;32646;50.958;6.258;2022-08-21T14:47:53;26.80;73.80
46898;DHT22;32646;50.958;6.258;2022-08-21T14:50:20;27.20;72.00
46898;DHT22;32646;50.958;6.258;2022-08-21T14:52:47;27.70;73.00
46898;DHT22;32646;50.958;6.258;2022-08-21T14:55:16;28.30;71.90
46898;DHT22;32646;50.958;6.258;2022-08-21T14:57:51;28.60;71.30
46898;DHT22;32646;50.958;6.258;2022-08-21T15:00:21;28.20;71.70
46898;DHT22;32646;50.958;6.258;2022-08-21T15:02:52;27.70;72.50
46898;DHT22;32646;50.958;6.258;2022-08-21T15:05:19;26.60;72.50
46898;DHT22;32646;50.958;6.258;2022-08-21T15:07:58;26.50;74.00
46898;DHT22;32646;50.958;6.258;2022-08-21T15:10:25;26.40;75.30
46898;DHT22;32646;50.958;6.258;2022-08-21T15:12:51;26.60;75.30
46898;DHT22;32646;50.958;6.258;2022-08-21T15:15:18;26.90;74.10
46898;DHT22;32646;50.958;6.258;2022-08-21T15:17:45;27.20;75.10
46898;DHT22;32646;50.958;6.258;2022-08-21T15:20:14;27.20;73.00
46898;DHT22;32646;50.958;6.258;2022-08-21T15:22:41;27.10;73.00
46898;DHT22;32646;50.958;6.258;2022-08-21T15:25:13;26.90;74.00
46898;DHT22;32646;50.958;6.258;2022-08-21T15:27:40;27.30;73.80
46898;DHT22;32646;50.958;6.258;2022-08-21T15:30:07;27.60;72.90
46898;DHT22;32646;50.958;6.258;2022-08-21T15:32:34;27.60;73.70
46898;DHT22;32646;50.958;6.258;2022-08-21T15:35:01;27.70;73.10
46898;DHT22;32646;50.958;6.258;2022-08-21T15:37:27;27.30;73.70
46898;DHT22;32646;50.958;6.258;2022-08-21T15:39:54;26.90;73.70
46898;DHT22;32646;50.958;6.258;2022-08-21T15:42:21;26.50;74.70
46898;DHT22;32646;50.958;6.258;2022-08-21T15:44:48;26.30;76.20
46898;DHT22;32646;50.958;6.258;2022-08-21T15:47:18;26.30;75.30
46898;DHT22;32646;50.958;6.258;2022-08-21T15:49:45;26.40;76.20
46898;DHT22;32646;50.958;6.258;2022-08-21T15:52:18;26.30;76.90
46898;DHT22;32646;50.958;6.258;2022-08-21T15:54:45;26.30;76.10
46898;DHT22;32646;50.958;6.258;2022-08-21T15:57:14;26.10;76.20
46898;DHT22;32646;50.958;6.258;2022-08-21T15:59:45;26.20;75.90
46898;DHT22;32646;50.958;6.258;2022-08-21T16:02:27;26.10;75.90
46898;DHT22;32646;50.958;6.258;2022-08-21T16:04:55;25.80;76.70
46898;DHT22;32646;50.958;6.258;2022-08-21T16:07:22;25.90;78.00
46898;DHT22;32646;50.958;6.258;2022-08-21T16:09:49;25.90;77.60
46898;DHT22;32646;50.958;6.258;2022-08-21T16:12:25;25.90;78.10
46898;DHT22;32646;50.958;6.258;2022-08-21T16:14:53;26.00;77.20
46898;DHT22;32646;50.958;6.258;2022-08-21T16:17:23;26.40;77.50
46898;DHT22;32646;50.958;6.258;2022-08-21T16:19:51;26.30;75.90
46898;DHT22;32646;50.958;6.258;2022-08-21T16:22:18;26.00;76.70
46898;DHT22;32646;50.958;6.258;2022-08-21T16:24:44;25.80;77.70
46898;DHT22;32646;50.958;6.258;2022-08-21T16:27:11;25.50;77.70
46898;DHT22;32646;50.958;6.258;2022-08-21T16:29:39;25.50;77.40
46898;DHT22;32646;50.958;6.258;2022-08-21T16:32:06;25.50;77.20
46898;DHT22;32646;50.958;6.258;2022-08-21T16:34:34;25.30;77.60
46898;DHT22;32646;50.958;6.258;2022-08-21T16:37:01;25.00;80.20
46898;DHT22;32646;50.958;6.258;2022-08-21T16:39:28;24.90;78.70
46898;DHT22;32646;50.958;6.258;2022-08-21T16:41:54;24.90;79.90
46898;DHT22;32646;50.958;6.258;2022-08-21T16:44:21;24.90;78.70
46898;DHT22;32646;50.958;6.258;2022-08-21T16:46:48;24.90;78.50
46898;DHT22;32646;50.958;6.258;2022-08-21T16:49:15;24.90;79.10
46898;DHT22;32646;50.958;6.258;2022-08-21T16:51:41;24.80;78.50
46898;DHT22;32646;50.958;6.258;2022-08-21T16:54:08;24.70;79.10
46898;DHT22;32646;50.958;6.258;2022-08-21T16:56:35;24.70;78.70
46898;DHT22;32646;50.958;6.258;2022-08-21T16:59:06;24.70;78.50
46898;DHT22;32646;50.958;6.258;2022-08-21T17:01:34;24.60;78.70
46898;DHT22;32646;50.958;6.258;2022-08-21T17:04:02;24.50;78.60
46898;DHT22;32646;50.958;6.258;2022-08-21T17:06:28;24.40;78.80
46898;DHT22;32646;50.958;6.258;2022-08-21T17:08:56;24.30;79.10
46898;DHT22;32646;50.958;6.258;2022-08-21T17:11:41;24.30;79.50